Time;durP1;ratioP1;P1;durP2;ratioP2;P2;SDS_P1;SDS_P2;PMS_P1;PMS_P2;Temp;Humidity;BMP_temperature;BMP_pressure;BME280_temperature;BME280_humidity;BME280_pressure;Samples;Min_cycle;Max_cycle;Signal;HPM_P1;HPM_P2
2022/05/12 00:00:16;;;;;;;1.83;0.60;;;;;;;-142.75;100.00;77194.34;5053082;28;20025;-68
2022/05/12 00:02:41;;;;;;;3.63;0.90;;;;;;;-142.75;100.00;77202.22;5051080;28;20032;-71
2022/05/12 00:05:07;;;;;;;;;;;;;;;-142.75;100.00;77204.19;5036857;28;20482;-68
2022/05/12 00:07:32;;;;;;;3.63;0.88;;;;;;;-142.75;100.00;77208.13;5040996;28;19916;-68
2022/05/12 00:09:58;;;;;;;2.67;0.50;;;;;;;-142.75;100.00;77216.00;5048958;28;20060;-72
2022/05/12 00:12:24;;;;;;;5.57;1.17;;;;;;;-142.75;100.00;77217.97;5034848;28;20545;-68
2022/05/12 00:14:50;;;;;;;4.22;0.80;;;;;;;-142.75;100.00;77212.06;5037332;28;20021;-69
2022/05/12 00:17:15;;;;;;;;;;;;;;;-142.75;100.00;77219.94;5039358;28;20044;-73
2022/05/12 00:19:41;;;;;;;3.42;1.00;;;;;;;-142.75;100.00;77227.81;5050079;28;19913;-70
2022/05/12 00:22:06;;;;;;;4.18;0.80;;;;;;;-142.75;100.00;77219.94;5042541;28;20033;-68
2022/05/12 00:24:31;;;;;;;2.83;0.95;;;;;;;-142.75;100.00;77231.75;5042627;28;20033;-69
2022/05/12 00:26:57;;;;;;;2.70;0.95;;;;;;;-142.75;100.00;77229.78;5046239;28;20490;-67
2022/05/12 00:29:22;;;;;;;;;;;;;;;-142.75;100.00;77235.69;5046638;28;20099;-68
2022/05/12 00:31:48;;;;;;;2.42;0.98;;;;;;;-142.75;100.00;77243.56;5040455;28;20055;-71
2022/05/12 00:34:15;;;;;;;;;;;;;;;-142.75;100.00;77239.63;5036783;28;20078;-72
2022/05/12 00:36:41;;;;;;;3.00;1.00;;;;;;;-142.75;100.00;77239.63;5050624;28;20010;-69
2022/05/12 00:39:06;;;;;;;3.50;1.00;;;;;;;-142.75;100.00;77245.53;5039718;28;20057;-68
2022/05/12 00:41:32;;;;;;;7.38;1.42;;;;;;;-142.75;100.00;77249.47;5034473;28;20124;-71
2022/05/12 00:44:02;;;;;;;;;;;;;;;-142.75;100.00;77247.50;5044032;28;20730;-69
2022/05/12 00:46:33;;;;;;;5.22;1.13;;;;;;;-142.75;100.00;77247.50;5037051;28;19917;-68
2022/05/12 00:49:19;;;;;;;3.67;1.08;;;;;;;-142.75;100.00;77247.50;5036748;28;20121;-69
2022/05/12 00:52:08;;;;;;;2.17;1.10;;;;;;;-142.75;100.00;77247.50;5038189;28;20540;-70
2022/05/12 00:54:41;;;;;;;5.75;1.25;;;;;;;-142.75;100.00;77247.50;5040901;28;20028;-69
2022/05/12 00:57:10;;;;;;;2.83;0.93;;;;;;;-142.75;100.00;77241.59;5036098;28;20104;-69
2022/05/12 00:59:36;;;;;;;3.17;1.05;;;;;;;-142.75;100.00;77239.63;5035518;28;20025;-69
2022/05/12 01:02:07;;;;;;;2.90;1.27;;;;;;;-142.75;100.00;77235.69;5035331;28;20196;-71
2022/05/12 01:04:34;;;;;;;4.95;1.20;;;;;;;-142.75;100.00;77237.66;5043381;28;20503;-68
2022/05/12 01:06:59;;;;;;;3.47;1.13;;;;;;;-142.75;100.00;77231.75;5041024;28;20372;-69
2022/05/12 01:09:27;;;;;;;6.03;1.52;;;;;;;-142.75;100.00;77221.91;5040048;28;20032;-68
2022/05/12 01:11:54;;;;;;;4.72;1.60;;;;;;;-142.75;100.00;77227.81;5051989;28;20032;-69
2022/05/12 01:14:19;;;;;;;2.60;1.20;;;;;;;-142.75;100.00;77235.69;5043975;28;20028;-68
2022/05/12 01:16:50;;;;;;;5.53;1.55;;;;;;;-142.75;100.00;77241.59;5036330;28;20108;-71
2022/05/12 01:19:20;;;;;;;3.20;1.40;;;;;;;-142.75;100.00;77247.50;5040219;28;20026;-68
2022/05/12 01:21:47;;;;;;;3.80;1.73;;;;;;;-142.75;100.00;77247.50;5041909;28;20100;-69
2022/05/12 01:24:14;;;;;;;5.97;1.33;;;;;;;-142.75;100.00;77247.50;5038805;28;20136;-69
2022/05/12 01:26:39;;;;;;;6.90;1.38;;;;;;;-142.75;100.00;77249.47;5048321;28;20013;-68
2022/05/12 01:29:05;;;;;;;3.58;1.00;;;;;;;-142.75;100.00;77249.47;5038525;28;20074;-74
2022/05/12 01:31:32;;;;;;;3.85;1.50;;;;;;;-142.75;100.00;77259.31;5047465;28;20033;-69
2022/05/12 01:33:58;;;;;;;3.70;1.48;;;;;;;-142.75;100.00;77257.34;5039435;28;20083;-72
2022/05/12 01:36:23;;;;;;;3.55;1.25;;;;;;;-142.75;100.00;77251.44;5034106;28;20065;-69
2022/05/12 01:38:48;;;;;;;;;;;;;;;-142.75;100.00;77259.31;5051777;28;20506;-69
2022/05/12 01:41:14;;;;;;;2.50;1.13;;;;;;;-142.75;100.00;77257.34;5036133;28;19921;-69
2022/05/12 01:43:40;;;;;;;;;;;;;;;-142.75;100.00;77263.25;5049324;28;20029;-68
2022/05/12 01:46:05;;;;;;;6.70;1.67;;;;;;;-142.75;100.00;77261.28;5037690;28;19917;-68
2022/05/12 01:48:31;;;;;;;5.15;1.10;;;;;;;-142.75;100.00;77265.22;5038102;28;20104;-72
2022/05/12 01:50:56;;;;;;;3.65;1.40;;;;;;;-142.75;100.00;77275.06;5051280;28;20024;-68
2022/05/12 01:53:22;;;;;;;;;;;;;;;-142.75;100.00;77280.97;5041895;28;20044;-67
2022/05/12 01:55:48;;;;;;;2.92;1.02;;;;;;;-142.75;100.00;77284.91;5050888;28;19912;-72
2022/05/12 01:58:15;;;;;;;6.20;1.92;;;;;;;-142.75;100.00;77279.00;5048295;28;20029;-68
2022/05/12 02:00:41;;;;;;;4.55;1.67;;;;;;;-142.75;100.00;77280.97;5046676;28;20132;-68
2022/05/12 02:03:06;;;;;;;4.18;1.60;;;;;;;-142.75;100.00;77290.81;5029990;28;20548;-70
2022/05/12 02:05:34;;;;;;;7.55;1.60;;;;;;;-142.75;100.00;77294.75;5040979;28;20376;-68
2022/05/12 02:07:59;;;;;;;2.58;1.60;;;;;;;-142.75;100.00;77296.72;5041022;28;20028;-69
2022/05/12 02:10:29;;;;;;;3.00;1.55;;;;;;;-142.75;100.00;77302.63;5036197;28;20044;-69
2022/05/12 02:12:55;;;;;;;8.35;2.28;;;;;;;-142.75;100.00;77306.56;5038521;28;20023;-69
2022/05/12 02:15:21;;;;;;;3.75;1.63;;;;;;;-142.75;100.00;77304.59;5050928;28;20053;-71
2022/05/12 02:17:48;;;;;;;3.92;1.75;;;;;;;-142.75;100.00;77312.47;5049293;28;20059;-69
2022/05/12 02:20:13;;;;;;;8.43;2.20;;;;;;;-142.75;100.00;77304.59;5050748;28;20017;-70
2022/05/12 02:22:40;;;;;;;4.20;1.85;;;;;;;-142.75;100.00;77308.53;5050490;28;20052;-68
2022/05/12 02:25:05;;;;;;;;;;;;;;;-142.75;100.00;77310.50;5043448;28;20032;-69
2022/05/12 02:27:31;;;;;;;3.30;1.70;;;;;;;-142.75;100.00;77320.34;5030941;28;20007;-69
2022/05/12 02:29:56;;;;;;;4.95;1.90;;;;;;;-142.75;100.00;77322.31;5030540;28;20425;-69
2022/05/12 02:32:22;;;;;;;3.80;1.90;;;;;;;-142.75;100.00;77326.25;5049400;28;20454;-68
2022/05/12 02:34:47;;;;;;;;;;;;;;;-142.75;100.00;77328.22;5038686;28;20017;-69
2022/05/12 02:37:12;;;;;;;5.60;2.15;;;;;;;-142.75;100.00;77330.19;5039857;28;20365;-69
2022/05/12 02:39:40;;;;;;;9.50;1.92;;;;;;;-142.75;100.00;77326.25;5050193;28;20056;-68
2022/05/12 02:42:08;;;;;;;4.40;2.22;;;;;;;-142.75;100.00;77330.19;5048709;28;20442;-69
2022/05/12 02:44:34;;;;;;;4.90;1.92;;;;;;;-142.75;100.00;77328.22;5046652;28;20386;-69
2022/05/12 02:47:00;;;;;;;7.68;2.03;;;;;;;-142.75;100.00;77340.03;5050166;28;20021;-69
2022/05/12 02:49:25;;;;;;;5.15;2.30;;;;;;;-142.75;100.00;77342.00;5034857;28;20100;-70
2022/05/12 02:51:51;;;;;;;7.22;2.40;;;;;;;-142.75;100.00;77349.88;5026061;28;20030;-68
2022/05/12 02:54:18;;;;;;;4.32;2.03;;;;;;;-142.75;100.00;77361.69;5038239;28;20521;-69
2022/05/12 02:56:43;;;;;;;8.48;2.55;;;;;;;-142.75;100.00;77359.72;5042084;28;20561;-72
2022/05/12 02:59:10;;;;;;;7.25;1.98;;;;;;;-142.75;100.00;77353.81;5038964;28;20167;-68
2022/05/12 03:01:36;;;;;;;5.95;2.00;;;;;;;-142.75;100.00;77353.81;5050241;28;20398;-68
2022/05/12 03:04:02;;;;;;;5.63;1.95;;;;;;;-142.75;100.00;77353.81;5033354;28;20032;-69
2022/05/12 03:06:28;;;;;;;7.80;2.50;;;;;;;-142.75;100.00;77365.63;5047609;28;20048;-69
2022/05/12 03:08:54;;;;;;;8.23;2.42;;;;;;;-142.75;100.00;77371.53;5049932;28;20029;-69
2022/05/12 03:11:20;;;;;;;7.57;2.33;;;;;;;-142.75;100.00;77369.56;5050008;28;20047;-69
2022/05/12 03:13:46;;;;;;;3.80;2.20;;;;;;;-142.75;100.00;77377.44;5032735;28;20033;-69
2022/05/12 03:16:12;;;;;;;4.55;2.00;;;;;;;-142.75;100.00;77381.38;5041352;28;20025;-69
2022/05/12 03:18:38;;;;;;;;;;;;;;;-142.75;100.00;77383.34;5038641;28;20037;-69
2022/05/12 03:21:03;;;;;;;4.30;1.92;;;;;;;-142.75;100.00;77385.31;5029924;28;20317;-71
2022/05/12 03:23:28;;;;;;;;;;;;;;;-142.75;100.00;77395.16;5049871;28;20029;-69
2022/05/12 03:25:54;;;;;;;5.57;1.88;;;;;;;-142.75;100.00;77397.13;5048573;28;19917;-72
2022/05/12 03:28:20;;;;;;;6.50;2.17;;;;;;;-142.75;100.00;77399.09;5045859;28;20076;-69
2022/05/12 03:30:46;;;;;;;6.00;2.13;;;;;;;-142.75;100.00;77416.81;5035788;28;20024;-67
2022/05/12 03:33:11;;;;;;;4.85;2.08;;;;;;;-142.75;100.00;77416.81;5040819;28;20029;-69
2022/05/12 03:35:36;;;;;;;5.47;2.33;;;;;;;-142.75;100.00;77414.84;5029102;28;20032;-71
2022/05/12 03:38:03;;;;;;;6.30;2.20;;;;;;;-142.75;100.00;77410.91;5029607;28;20028;-68
2022/05/12 03:40:30;;;;;;;5.80;2.35;;;;;;;-142.75;100.00;77416.81;5034988;28;20115;-69
2022/05/12 03:42:58;;;;;;;5.68;1.88;;;;;;;-142.75;100.00;77416.81;5031336;28;20049;-68
2022/05/12 03:45:24;;;;;;;5.68;2.30;;;;;;;-142.75;100.00;77416.81;5030722;28;20497;-67
2022/05/12 03:47:50;;;;;;;4.13;2.10;;;;;;;-142.75;100.00;77416.81;5029619;28;20036;-68
2022/05/12 03:50:19;;;;;;;6.70;2.50;;;;;;;-142.75;100.00;77420.75;5029637;28;20388;-68
2022/05/12 03:52:48;;;;;;;7.30;1.90;;;;;;;-142.75;100.00;77420.75;5029787;28;20044;-68
2022/05/12 03:55:16;;;;;;;4.22;2.10;;;;;;;-142.75;100.00;77422.72;5028306;28;20083;-68
2022/05/12 03:57:44;;;;;;;5.80;2.00;;;;;;;-142.75;100.00;77428.63;5028418;28;20411;-66
2022/05/12 04:00:14;;;;;;;5.95;2.15;;;;;;;-142.75;100.00;77428.63;5029417;28;20491;-67
2022/05/12 04:02:39;;;;;;;6.95;2.33;;;;;;;-142.75;100.00;77438.47;5028307;28;20116;-68
2022/05/12 04:05:06;;;;;;;7.47;2.38;;;;;;;-142.75;100.00;77442.41;5029822;28;20104;-69
2022/05/12 04:07:31;;;;;;;5.22;1.98;;;;;;;-142.75;100.00;77438.47;5033808;28;20029;-68
2022/05/12 04:10:00;;;;;;;4.47;2.10;;;;;;;-142.75;100.00;77444.38;5033119;28;20037;-68
2022/05/12 04:12:25;;;;;;;6.10;2.10;;;;;;;-142.75;100.00;77444.38;5032089;28;20029;-68
2022/05/12 04:14:50;;;;;;;5.82;2.30;;;;;;;-142.75;100.00;77462.13;5033294;28;20025;-66
2022/05/12 04:17:16;;;;;;;6.13;1.85;;;;;;;-142.75;100.00;77471.97;5031874;28;20092;-68
2022/05/12 04:19:44;;;;;;;6.90;2.45;;;;;;;-142.75;100.00;77468.03;5033069;28;20025;-68
2022/05/12 04:22:09;;;;;;;5.63;2.30;;;;;;;-142.75;100.00;77475.91;5033207;28;20114;-68
2022/05/12 04:24:34;;;;;;;7.13;1.83;;;;;;;-142.75;100.00;77468.03;5033145;28;20079;-68
2022/05/12 04:27:00;;;;;;;3.63;1.73;;;;;;;-142.75;100.00;77475.91;5032937;28;20025;-68
2022/05/12 04:29:25;;;;;;;8.57;2.13;;;;;;;-142.75;100.00;77475.91;5032686;28;20634;-68
2022/05/12 04:31:51;;;;;;;5.78;2.42;;;;;;;-142.75;100.00;77468.03;5032491;28;20029;-68
2022/05/12 04:37:01;;;;;;;11.00;2.63;;;;;;;-142.75;100.00;77470.00;5033679;28;20091;-68
2022/05/12 04:39:26;;;;;;;4.43;2.15;;;;;;;-142.75;100.00;77466.03;5037766;28;20611;-68
2022/05/12 04:41:51;;;;;;;;;;;;;;;-142.75;100.00;77466.03;5051665;28;20037;-68
2022/05/12 04:44:17;;;;;;;3.80;1.73;;;;;;;-142.75;100.00;77470.00;5052219;28;19920;-68
2022/05/12 04:46:42;;;;;;;4.22;1.55;;;;;;;-142.75;100.00;77464.09;5052841;28;20028;-67
2022/05/12 04:49:09;;;;;;;;;;;;;;;-142.75;100.00;77464.09;5052594;28;20490;-68
2022/05/12 04:51:35;;;;;;;9.93;2.05;;;;;;;-142.75;100.00;77456.22;5052553;28;19963;-67
2022/05/12 04:54:01;;;;;;;7.35;1.92;;;;;;;-142.75;100.00;77448.34;5052573;28;20497;-67
2022/05/12 04:56:27;;;;;;;5.25;1.95;;;;;;;-142.75;100.00;77446.34;5052069;28;20399;-68
2022/05/12 04:58:52;;;;;;;9.02;2.40;;;;;;;-142.75;100.00;77448.34;5048223;28;20043;-68
2022/05/12 05:01:18;;;;;;;8.38;2.80;;;;;;;-142.75;100.00;77436.50;5032486;28;20029;-68
2022/05/12 05:03:43;;;;;;;8.10;2.03;;;;;;;-142.75;100.00;77424.69;5032419;28;20026;-68
2022/05/12 05:06:09;;;;;;;6.45;2.15;;;;;;;-142.75;100.00;77416.81;5032729;28;20083;-67
2022/05/12 05:08:35;;;;;;;;;;;;;;;-142.75;100.00;77401.06;5032413;28;20037;-68
2022/05/12 05:11:00;;;;;;;6.70;1.70;;;;;;;-142.75;100.00;77387.28;5030961;28;20436;-68
2022/05/12 05:13:26;;;;;;;;;;;;;;;-142.75;100.00;77379.41;5030917;28;20036;-69
2022/05/12 05:15:53;;;;;;;6.45;1.83;;;;;;;-142.75;100.00;77367.59;5030699;28;19924;-67
2022/05/12 05:18:20;;;;;;;7.20;1.90;;;;;;;-142.75;100.00;77355.78;5033143;28;20650;-68
2022/05/12 05:20:46;;;;;;;9.70;1.45;;;;;;;-142.75;100.00;77340.03;5030589;28;20037;-67
2022/05/12 05:23:15;;;;;;;9.18;1.92;;;;;;;-142.75;100.00;77324.28;5030495;28;20029;-68
2022/05/12 05:25:41;;;;;;;8.50;1.75;;;;;;;-142.75;100.00;77302.63;5030408;28;20037;-68
2022/05/12 05:28:06;;;;;;;4.55;1.60;;;;;;;-142.75;100.00;77294.75;5029378;28;20037;-67
2022/05/12 05:30:33;;;;;;;;;;;;;;;-142.75;100.00;77282.94;5031299;28;20065;-68
2022/05/12 05:32:58;;;;;;;6.07;1.55;;;;;;;-142.75;100.00;77257.34;5030652;28;19955;-68
2022/05/12 05:35:24;;;;;;;4.00;1.63;;;;;;;-142.75;100.00;77243.56;5031779;28;20052;-67
2022/05/12 05:37:52;;;;;;;5.47;1.80;;;;;;;-142.75;100.00;77231.75;5031749;28;20447;-67
2022/05/12 05:40:20;;;;;;;6.63;2.00;;;;;;;-142.75;100.00;77219.94;5031746;28;20104;-67
2022/05/12 05:42:47;;;;;;;4.20;1.42;;;;;;;-142.75;100.00;77214.03;5031389;28;20026;-68
2022/05/12 05:45:15;;;;;;;6.88;1.95;;;;;;;-142.75;100.00;77202.22;5031373;28;20120;-67
2022/05/12 05:47:46;;;;;;;5.82;1.33;;;;;;;-142.75;100.00;77184.50;5031495;28;20029;-68
2022/05/12 05:50:20;;;;;;;6.97;1.38;;;;;;;-142.75;100.00;77176.63;5030137;28;20037;-68
2022/05/12 05:55:29;;;;;;;5.30;1.52;;;;;;;-142.75;100.00;77141.19;5031806;28;20114;-68
2022/05/12 05:58:01;;;;;;;6.50;1.98;;;;;;;-142.75;100.00;77125.44;5030853;28;20533;-68
2022/05/12 06:00:27;;;;;;;3.95;1.35;;;;;;;-142.75;100.00;77117.56;5031173;28;20033;-68
2022/05/12 06:02:52;;;;;;;4.45;1.60;;;;;;;-142.75;100.00;77095.91;5031327;28;20206;-67
2022/05/12 06:05:18;;;;;;;4.88;1.58;;;;;;;-142.75;100.00;77080.16;5031210;28;20108;-67
2022/05/12 06:07:43;;;;;;;;;;;;;;;-142.75;100.00;77070.31;5031906;28;20025;-69
2022/05/12 06:10:09;;;;;;;5.20;1.40;;;;;;;-142.75;100.00;77050.63;5031116;28;20410;-68
2022/05/12 06:12:34;;;;;;;;;;;;;;;-142.75;100.00;77050.63;5031608;28;20025;-68
2022/05/12 06:15:00;;;;;;;7.68;1.30;;;;;;;-142.75;100.00;77023.06;5047613;28;19999;-68
2022/05/12 06:17:26;;;;;;;;;;;;;;;-142.75;100.00;77023.06;5050672;28;20486;-67
2022/05/12 06:19:51;;;;;;;5.10;1.42;;;;;;;-142.75;100.00;77007.31;5049869;28;20015;-68
2022/05/12 06:22:19;;;;;;;;;;;;;;;-142.75;100.00;77005.34;5049931;28;20048;-67
2022/05/12 06:24:44;;;;;;;5.72;1.50;;;;;;;-142.75;100.00;76995.50;5049531;28;20312;-68
2022/05/12 06:27:10;;;;;;;;;;;;;;;-142.75;100.00;76975.81;5050369;28;20025;-67
2022/05/12 06:29:36;;;;;;;3.85;1.20;;;;;;;-142.75;100.00;76964.00;5048698;28;19917;-68
2022/05/12 06:32:01;;;;;;;8.60;1.25;;;;;;;-142.75;100.00;76938.41;5048135;28;20558;-68
2022/05/12 06:34:27;;;;;;;;;;;;;;;-142.75;100.00;76926.59;5050112;28;20028;-68
2022/05/12 06:36:54;;;;;;;5.95;1.20;;;;;;;-142.75;100.00;76910.84;5050019;28;19924;-68
2022/05/12 06:39:19;;;;;;;2.47;1.00;;;;;;;-142.75;100.00;76895.09;5049040;28;20028;-68
2022/05/12 06:41:44;;;;;;;;;;;;;;;-142.75;100.00;76889.19;5050124;28;20480;-67
2022/05/12 06:44:10;;;;;;;2.33;0.88;;;;;;;-142.75;100.00;76899.03;5032721;28;19913;-67
2022/05/12 06:46:36;;;;;;;;;;;;;;;-142.75;100.00;76877.38;5029830;28;20088;-68
2022/05/12 06:49:03;;;;;;;9.52;1.52;;;;;;;-142.75;100.00;76869.50;5027771;28;19940;-67
2022/05/12 06:51:28;;;;;;;4.47;1.00;;;;;;;-142.75;100.00;76889.19;5029415;28;20036;-67
2022/05/12 06:53:54;;;;;;;;;;;;;;;-142.75;100.00;76861.63;5029822;28;20104;-67
2022/05/12 06:56:20;;;;;;;4.03;1.13;;;;;;;-142.75;100.00;76849.81;5029395;28;19951;-67
2022/05/12 06:58:46;;;;;;;3.28;1.10;;;;;;;-142.75;100.00;76851.78;5027790;28;20029;-67
2022/05/12 07:01:11;;;;;;;;;;;;;;;-142.75;100.00;76855.72;5029884;28;20029;-67
2022/05/12 07:03:37;;;;;;;8.20;1.45;;;;;;;-142.75;100.00;76847.84;5029397;28;20294;-68
2022/05/12 07:06:03;;;;;;;7.32;1.65;;;;;;;-142.75;100.00;76845.88;5028091;28;20026;-68
2022/05/12 07:08:28;;;;;;;;;;;;;;;-142.75;100.00;76830.13;5030089;28;20026;-68
2022/05/12 07:10:54;;;;;;;3.25;1.30;;;;;;;-142.75;100.00;76798.66;5029568;28;19966;-69
2022/05/12 07:13:20;;;;;;;;;;;;;;;-142.75;100.00;76778.97;5030292;28;20078;-69
2022/05/12 07:15:51;;;;;;;5.03;1.35;;;;;;;-142.75;100.00;76782.91;5028568;28;19913;-69
2022/05/12 07:18:18;;;;;;;5.55;1.33;;;;;;;-142.75;100.00;76771.09;5029209;28;20037;-68
2022/05/12 07:28:55;;;;;;;5.50;1.20;;;;;;;-142.75;100.00;76717.94;5029228;28;20109;-69
2022/05/12 07:31:21;;;;;;;4.15;1.10;;;;;;;-142.75;100.00;76678.56;5029505;28;20119;-69
2022/05/12 07:33:47;;;;;;;2.92;0.75;;;;;;;-142.75;100.00;76660.84;5029618;28;20108;-69
2022/05/12 07:36:17;;;;;;;6.70;1.13;;;;;;;-142.75;100.00;76651.00;5030516;28;20113;-69
2022/05/12 07:38:43;;;;;;;3.63;1.02;;;;;;;-142.75;100.00;76613.59;5028861;28;20039;-69
2022/05/12 07:41:11;;;;;;;6.65;1.10;;;;;;;-142.75;100.00;76609.66;5032554;28;20029;-69
2022/05/12 07:43:40;;;;;;;5.18;1.10;;;;;;;-142.75;100.00;76597.84;5033643;28;20037;-69
2022/05/12 07:46:07;;;;;;;2.53;0.77;;;;;;;-142.75;100.00;76597.84;5034163;28;20075;-69
2022/05/12 07:48:33;;;;;;;3.50;1.13;;;;;;;-142.75;100.00;76593.91;5033565;28;20044;-70
2022/05/12 07:50:58;;;;;;;6.47;1.00;;;;;;;-142.75;100.00;76582.09;5033926;28;20068;-70
2022/05/12 07:53:24;;;;;;;6.38;1.20;;;;;;;-142.75;100.00;76591.94;5033558;28;20029;-70
2022/05/12 07:55:50;;;;;;;3.03;0.90;;;;;;;-142.75;100.00;76578.16;5034175;28;20032;-69
2022/05/12 07:58:17;;;;;;;7.30;1.20;;;;;;;-142.75;100.00;76558.47;5033765;28;20402;-69
2022/05/12 08:00:43;;;;;;;5.45;1.13;;;;;;;-142.75;100.00;76560.44;5034085;28;20022;-69
2022/05/12 08:03:09;;;;;;;3.88;0.80;;;;;;;-142.75;100.00;76554.53;5033770;28;20021;-69
2022/05/12 08:05:34;;;;;;;4.22;1.25;;;;;;;-142.75;100.00;76554.53;5033874;28;20071;-70
2022/05/12 08:08:00;;;;;;;2.70;1.05;;;;;;;-142.75;100.00;76534.84;5033718;28;20032;-70
2022/05/12 08:10:25;;;;;;;3.38;1.10;;;;;;;-142.75;100.00;76521.09;5033985;28;20034;-69
2022/05/12 08:12:51;;;;;;;2.50;1.00;;;;;;;-142.75;100.00;76521.09;5033819;28;20033;-70
2022/05/12 08:15:18;;;;;;;3.90;1.20;;;;;;;-142.75;99.70;76495.50;5033837;28;20536;-69
2022/05/12 08:17:43;;;;;;;5.13;1.00;;;;;;;-142.75;99.78;76473.84;5033640;28;20033;-68
2022/05/12 08:20:12;;;;;;;5.32;1.08;;;;;;;-142.75;94.24;76464.00;5033730;28;20025;-69
2022/05/12 08:22:38;;;;;;;3.50;1.00;;;;;;;-142.75;96.37;76487.63;5033713;28;20479;-69
2022/05/12 08:25:04;;;;;;;4.10;0.90;;;;;;;-142.75;93.01;76532.88;5032244;28;20075;-69
2022/05/12 08:27:31;;;;;;;5.18;0.60;;;;;;;-142.75;88.07;76525.03;5033563;28;20052;-69
2022/05/12 08:29:56;;;;;;;3.22;0.95;;;;;;;-142.75;90.34;76560.44;5032139;28;20022;-69
2022/05/12 08:32:22;;;;;;;3.25;1.25;;;;;;;-142.75;100.00;76542.72;5033555;28;20026;-69
2022/05/12 08:34:47;;;;;;;2.63;1.00;;;;;;;-142.75;91.66;76540.75;5032251;28;20020;-69
2022/05/12 08:37:15;;;;;;;3.45;0.98;;;;;;;-142.75;91.42;76536.84;5033450;28;20491;-68
2022/05/12 08:39:43;;;;;;;3.10;0.70;;;;;;;-142.75;90.93;76495.50;5031898;28;20025;-69
2022/05/12 08:42:20;;;;;;;3.53;1.10;;;;;;;-142.75;84.64;76473.84;5033417;28;20104;-69
2022/05/12 08:44:45;;;;;;;;;;;;;;;-142.75;83.35;76505.34;5033505;28;20036;-69
2022/05/12 08:47:14;;;;;;;9.40;1.30;;;;;;;-142.75;87.73;76465.97;5033472;28;20011;-70
2022/05/12 08:49:44;;;;;;;2.85;1.00;;;;;;;-142.75;85.76;76422.66;5033001;28;20025;-69
2022/05/12 08:52:25;;;;;;;2.38;0.70;;;;;;;-142.75;81.56;76367.53;5032416;28;20048;-70
2022/05/12 08:55:10;;;;;;;3.10;0.70;;;;;;;-142.75;79.32;76361.63;5033052;28;20024;-69
2022/05/12 08:57:41;;;;;;;5.72;1.20;;;;;;;-142.75;74.44;76349.81;5033172;28;20109;-69
2022/05/12 09:00:11;;;;;;;5.32;1.08;;;;;;;-142.75;76.88;76298.66;5031582;28;20487;-69
2022/05/12 09:02:50;;;;;;;7.45;0.68;;;;;;;-142.75;68.25;76322.28;5031473;28;20025;-69
2022/05/12 09:05:21;;;;;;;5.07;1.08;;;;;;;-142.75;74.45;76296.69;5032705;28;20080;-69
2022/05/12 09:07:54;;;;;;;4.68;0.90;;;;;;;-142.75;74.92;76278.97;5032832;28;20041;-69
2022/05/12 09:10:39;;;;;;;4.22;0.80;;;;;;;-142.75;69.33;76257.31;5032835;28;20114;-69
2022/05/12 09:13:14;;;;;;;5.70;1.02;;;;;;;-142.75;72.39;76225.81;5032853;28;20128;-69
2022/05/12 09:16:04;;;;;;;3.28;1.08;;;;;;;-142.75;67.32;76208.09;5032733;28;20731;-69
2022/05/12 09:18:33;;;;;;;4.32;0.90;;;;;;;-142.75;66.31;76188.44;5032472;28;20033;-70
2022/05/12 09:21:09;;;;;;;5.13;1.13;;;;;;;-142.75;68.48;76253.38;5032768;28;20108;-70
2022/05/12 09:23:35;;;;;;;3.28;0.95;;;;;;;-142.75;69.42;76219.91;5032289;28;20029;-70
2022/05/12 09:26:20;;;;;;;6.30;1.60;;;;;;;-142.75;68.41;76200.25;5031321;28;20033;-70
2022/05/12 09:28:46;;;;;;;4.45;1.33;;;;;;;-142.75;71.04;76188.44;5030796;28;20040;-69
2022/05/12 09:31:17;;;;;;;6.78;1.17;;;;;;;-142.75;66.08;76235.66;5031283;28;20406;-69
2022/05/12 09:33:46;;;;;;;4.43;0.95;;;;;;;-142.75;67.04;76217.94;5038996;28;20029;-69
2022/05/12 09:36:24;;;;;;;4.32;1.05;;;;;;;-142.75;64.30;76176.63;5050927;28;20546;-69
2022/05/12 09:38:54;;;;;;;2.78;0.98;;;;;;;-142.75;62.58;76196.31;5051957;28;20490;-70
2022/05/12 09:41:44;;;;;;;2.80;0.85;;;;;;;-142.75;62.78;76214.00;5052342;28;20059;-69
2022/05/12 09:47:01;;;;;;;3.58;0.90;;;;;;;-142.75;61.24;76168.75;5049318;28;20045;-69
2022/05/12 09:49:38;;;;;;;5.93;0.85;;;;;;;-142.75;63.64;76147.09;5050034;28;20025;-69
2022/05/12 09:52:19;;;;;;;;;;;;;;;-142.75;57.99;76129.38;5051729;28;20495;-69
2022/05/12 09:54:45;;;;;;;3.08;0.65;;;;;;;-142.75;58.67;76172.69;5051119;28;20270;-68
2022/05/12 09:57:20;;;;;;;1.92;0.70;;;;;;;-142.75;61.12;76147.09;5051422;28;20025;-69
2022/05/12 09:59:55;;;;;;;4.38;1.02;;;;;;;-142.75;62.23;76125.44;5049633;28;20028;-69
2022/05/12 10:07:53;;;;;;;3.15;1.02;;;;;;;-142.75;60.81;76129.38;5050720;28;20040;-70
2022/05/12 10:08:24;;;;;;;2.65;0.93;;;;;;;-142.75;58.49;76190.41;5051019;28;20044;-69
2022/05/12 10:10:54;;;;;;;4.63;1.15;;;;;;;-142.75;60.12;76247.47;5050940;28;20029;-70
2022/05/12 10:13:38;;;;;;;2.85;1.10;;;;;;;-142.75;63.69;76243.53;5050928;28;20024;-69
2022/05/12 10:16:04;;;;;;;4.03;1.05;;;;;;;-142.75;64.53;76217.94;5051307;28;20056;-70
2022/05/12 10:18:43;;;;;;;3.13;0.98;;;;;;;-142.75;58.85;76202.19;5051364;28;20106;-70
2022/05/12 10:21:18;;;;;;;6.85;0.90;;;;;;;-142.75;58.97;76223.84;5051379;28;20040;-70
2022/05/12 10:23:50;;;;;;;3.70;0.80;;;;;;;-142.75;57.54;76215.97;5051708;28;20449;-69
2022/05/12 10:26:41;;;;;;;3.75;0.70;;;;;;;-142.75;57.31;76214.00;5050962;28;20290;-69
2022/05/12 10:29:48;;;;;;;6.43;1.13;;;;;;;-142.75;58.52;76263.22;5050356;28;20024;-70
2022/05/12 10:32:31;;;;;;;3.00;0.77;;;;;;;-142.75;60.48;76196.31;5048725;28;20124;-70
2022/05/12 10:35:13;;;;;;;5.43;0.80;;;;;;;-142.75;58.35;76227.78;5050535;28;20021;-69
2022/05/12 10:38:06;;;;;;;2.97;0.80;;;;;;;-142.75;58.94;76184.50;5050559;28;20025;-70
2022/05/12 10:40:52;;;;;;;2.75;0.60;;;;;;;-142.75;59.75;76227.78;5049398;28;20474;-70
2022/05/12 10:43:30;;;;;;;2.92;0.77;;;;;;;-142.75;59.28;76192.38;5050319;28;20028;-70
2022/05/12 10:46:17;;;;;;;3.40;0.70;;;;;;;-142.75;59.29;76225.81;5050324;28;20056;-69
2022/05/12 10:48:54;;;;;;;3.67;0.68;;;;;;;-142.75;57.42;76233.69;5050417;28;20063;-69
2022/05/12 10:51:35;;;;;;;3.47;0.70;;;;;;;-142.75;59.76;76257.31;5048689;28;20044;-70
2022/05/12 10:54:14;;;;;;;3.67;0.90;;;;;;;-142.75;58.56;76223.84;5050429;28;20029;-70
2022/05/12 10:57:19;;;;;;;3.90;0.68;;;;;;;-142.75;59.79;76239.59;5049097;28;20056;-70
2022/05/12 11:00:15;;;;;;;2.75;0.65;;;;;;;-142.75;60.33;76286.84;5050082;28;20032;-70
2022/05/12 11:02:55;;;;;;;3.03;0.65;;;;;;;-142.75;61.87;76284.88;5050129;28;20025;-71
2022/05/12 11:05:21;;;;;;;1.70;0.63;;;;;;;-142.75;62.50;76298.66;5048720;28;20052;-71
2022/05/12 11:07:53;;;;;;;3.10;0.47;;;;;;;-142.75;61.83;76231.72;5049678;28;20517;-71
2022/05/12 11:10:26;;;;;;;3.08;0.80;;;;;;;-142.75;56.51;76151.03;5048637;28;20028;-71
2022/05/12 11:13:20;;;;;;;6.05;0.85;;;;;;;-142.75;56.75;76113.63;5050085;28;20112;-70
2022/05/12 11:15:53;;;;;;;4.13;0.75;;;;;;;-142.75;56.51;76117.56;5048655;28;20029;-70
2022/05/12 11:18:46;;;;;;;2.60;0.65;;;;;;;-142.75;56.57;76249.44;5046769;28;20025;-71
2022/05/12 11:21:25;;;;;;;2.67;0.68;;;;;;;-142.75;56.25;76215.97;5043875;28;20555;-71
2022/05/12 11:24:04;;;;;;;4.43;0.80;;;;;;;-142.75;56.32;76145.13;5049969;28;20036;-71
2022/05/12 11:26:58;;;;;;;4.15;0.70;;;;;;;-142.75;55.88;76101.81;5049721;28;20482;-70
2022/05/12 11:29:44;;;;;;;2.42;0.65;;;;;;;-142.75;54.17;76160.88;5049633;28;20429;-70
2022/05/12 11:32:48;;;;;;;3.95;0.60;;;;;;;-142.75;57.33;76121.50;5050098;28;20442;-70
2022/05/12 11:35:19;;;;;;;2.30;0.60;;;;;;;-142.75;56.24;76093.94;5024379;28;20041;-70
2022/05/12 11:37:44;;;;;;;2.45;0.80;;;;;;;-142.75;57.13;76168.75;5049719;28;20032;-70
2022/05/12 11:40:44;;;;;;;3.65;1.35;;;;;;;-142.75;58.44;76241.56;5049728;28;20037;-71
2022/05/12 11:46:16;;;;;;;6.07;0.70;;;;;;;-142.75;58.31;76237.63;5049432;28;20095;-70
2022/05/12 11:49:08;;;;;;;4.10;0.90;;;;;;;-142.75;56.49;76170.72;5050001;28;20104;-70
2022/05/12 11:52:16;;;;;;;4.47;0.65;;;;;;;-142.75;55.23;76078.19;5049590;28;20394;-71